sensor_id;sensor_type;location;lat;lon;timestamp;P1;durP1;ratioP1;P2;durP2;ratioP2
78308;SDS011;67566;42.022;21.356;2023-09-18T00:01:50;14.13;;;10.35;;
78308;SDS011;67566;42.022;21.356;2023-09-18T00:04:15;13.20;;;10.43;;
78308;SDS011;67566;42.022;21.356;2023-09-18T00:06:41;12.02;;;10.02;;
78308;SDS011;67566;42.022;21.356;2023-09-18T00:09:07;14.05;;;11.13;;
78308;SDS011;67566;42.022;21.356;2023-09-18T00:11:36;14.40;;;10.88;;
78308;SDS011;67566;42.022;21.356;2023-09-18T00:14:03;13.52;;;10.35;;
78308;SDS011;67566;42.022;21.356;2023-09-18T00:16:28;14.32;;;11.27;;
78308;SDS011;67566;42.022;21.356;2023-09-18T00:18:54;13.35;;;10.27;;
78308;SDS011;67566;42.022;21.356;2023-09-18T00:21:20;11.48;;;9.93;;
78308;SDS011;67566;42.022;21.356;2023-09-18T00:23:45;13.30;;;10.70;;
78308;SDS011;67566;42.022;21.356;2023-09-18T00:26:11;11.77;;;9.48;;
78308;SDS011;67566;42.022;21.356;2023-09-18T00:28:37;14.77;;;10.90;;
78308;SDS011;67566;42.022;21.356;2023-09-18T00:31:02;12.32;;;10.05;;
78308;SDS011;67566;42.022;21.356;2023-09-18T00:33:28;13.23;;;9.98;;
78308;SDS011;67566;42.022;21.356;2023-09-18T00:35:53;13.25;;;10.85;;
78308;SDS011;67566;42.022;21.356;2023-09-18T00:38:19;12.65;;;9.70;;
78308;SDS011;67566;42.022;21.356;2023-09-18T00:40:44;12.68;;;11.00;;
78308;SDS011;67566;42.022;21.356;2023-09-18T00:43:10;11.13;;;9.60;;
78308;SDS011;67566;42.022;21.356;2023-09-18T00:45:40;15.27;;;10.77;;
78308;SDS011;67566;42.022;21.356;2023-09-18T00:48:09;14.13;;;11.13;;
78308;SDS011;67566;42.022;21.356;2023-09-18T00:50:35;17.65;;;13.18;;
78308;SDS011;67566;42.022;21.356;2023-09-18T00:53:01;17.00;;;13.65;;
78308;SDS011;67566;42.022;21.356;2023-09-18T00:55:27;16.88;;;13.00;;
78308;SDS011;67566;42.022;21.356;2023-09-18T00:57:55;15.57;;;12.80;;
78308;SDS011;67566;42.022;21.356;2023-09-18T01:00:21;13.32;;;10.30;;
78308;SDS011;67566;42.022;21.356;2023-09-18T01:02:48;12.38;;;10.73;;
78308;SDS011;67566;42.022;21.356;2023-09-18T01:05:14;15.82;;;11.95;;
78308;SDS011;67566;42.022;21.356;2023-09-18T01:07:41;15.70;;;12.07;;
78308;SDS011;67566;42.022;21.356;2023-09-18T01:10:07;18.70;;;12.88;;
78308;SDS011;67566;42.022;21.356;2023-09-18T01:12:39;16.80;;;13.23;;
78308;SDS011;67566;42.022;21.356;2023-09-18T01:15:12;16.70;;;12.57;;
78308;SDS011;67566;42.022;21.356;2023-09-18T01:17:42;15.52;;;11.57;;
78308;SDS011;67566;42.022;21.356;2023-09-18T01:20:09;12.43;;;11.13;;
78308;SDS011;67566;42.022;21.356;2023-09-18T01:22:35;15.13;;;11.68;;
78308;SDS011;67566;42.022;21.356;2023-09-18T01:25:01;13.45;;;10.55;;
78308;SDS011;67566;42.022;21.356;2023-09-18T01:27:27;13.80;;;12.10;;
78308;SDS011;67566;42.022;21.356;2023-09-18T01:29:53;15.23;;;10.10;;
78308;SDS011;67566;42.022;21.356;2023-09-18T01:32:19;14.35;;;11.40;;
78308;SDS011;67566;42.022;21.356;2023-09-18T01:34:50;13.23;;;10.05;;
78308;SDS011;67566;42.022;21.356;2023-09-18T01:37:21;15.15;;;10.98;;
78308;SDS011;67566;42.022;21.356;2023-09-18T01:39:55;13.85;;;10.68;;
78308;SDS011;67566;42.022;21.356;2023-09-18T01:42:24;15.57;;;11.13;;
78308;SDS011;67566;42.022;21.356;2023-09-18T01:44:51;11.85;;;9.88;;
78308;SDS011;67566;42.022;21.356;2023-09-18T01:47:18;13.07;;;11.07;;
78308;SDS011;67566;42.022;21.356;2023-09-18T01:49:45;13.70;;;11.82;;
78308;SDS011;67566;42.022;21.356;2023-09-18T01:52:11;17.63;;;11.52;;
78308;SDS011;67566;42.022;21.356;2023-09-18T01:54:37;14.60;;;11.05;;
78308;SDS011;67566;42.022;21.356;2023-09-18T01:57:03;14.40;;;11.00;;
78308;SDS011;67566;42.022;21.356;2023-09-18T01:59:29;15.15;;;10.95;;
78308;SDS011;67566;42.022;21.356;2023-09-18T02:01:55;14.00;;;11.73;;
78308;SDS011;67566;42.022;21.356;2023-09-18T02:04:21;13.55;;;11.35;;
78308;SDS011;67566;42.022;21.356;2023-09-18T02:06:48;15.77;;;10.95;;
78308;SDS011;67566;42.022;21.356;2023-09-18T02:09:15;15.27;;;10.77;;
78308;SDS011;67566;42.022;21.356;2023-09-18T02:11:41;12.48;;;11.18;;
78308;SDS011;67566;42.022;21.356;2023-09-18T02:14:08;14.93;;;11.25;;
78308;SDS011;67566;42.022;21.356;2023-09-18T02:16:35;14.93;;;12.48;;
78308;SDS011;67566;42.022;21.356;2023-09-18T02:19:02;15.15;;;11.27;;
78308;SDS011;67566;42.022;21.356;2023-09-18T02:21:29;17.38;;;12.15;;
78308;SDS011;67566;42.022;21.356;2023-09-18T02:23:55;12.65;;;10.35;;
78308;SDS011;67566;42.022;21.356;2023-09-18T02:26:21;13.85;;;11.60;;
78308;SDS011;67566;42.022;21.356;2023-09-18T02:28:47;16.20;;;11.20;;
78308;SDS011;67566;42.022;21.356;2023-09-18T02:31:13;15.43;;;11.10;;
78308;SDS011;67566;42.022;21.356;2023-09-18T02:33:39;14.90;;;11.68;;
78308;SDS011;67566;42.022;21.356;2023-09-18T02:36:05;15.88;;;12.05;;
78308;SDS011;67566;42.022;21.356;2023-09-18T02:38:31;15.73;;;11.88;;
78308;SDS011;67566;42.022;21.356;2023-09-18T02:40:57;14.82;;;10.98;;
78308;SDS011;67566;42.022;21.356;2023-09-18T02:43:23;12.95;;;11.57;;
78308;SDS011;67566;42.022;21.356;2023-09-18T02:45:49;15.55;;;11.68;;
78308;SDS011;67566;42.022;21.356;2023-09-18T02:48:15;16.13;;;11.85;;
78308;SDS011;67566;42.022;21.356;2023-09-18T02:50:41;14.55;;;11.52;;
78308;SDS011;67566;42.022;21.356;2023-09-18T02:53:07;15.60;;;11.45;;
78308;SDS011;67566;42.022;21.356;2023-09-18T02:55:41;13.57;;;11.15;;
78308;SDS011;67566;42.022;21.356;2023-09-18T02:58:06;19.17;;;11.38;;
78308;SDS011;67566;42.022;21.356;2023-09-18T03:00:34;15.15;;;10.90;;
78308;SDS011;67566;42.022;21.356;2023-09-18T03:02:59;14.25;;;11.75;;
78308;SDS011;67566;42.022;21.356;2023-09-18T03:05:25;16.25;;;12.25;;
78308;SDS011;67566;42.022;21.356;2023-09-18T03:07:51;19.88;;;13.65;;
78308;SDS011;67566;42.022;21.356;2023-09-18T03:10:17;14.00;;;11.75;;
78308;SDS011;67566;42.022;21.356;2023-09-18T03:12:43;13.70;;;12.02;;
78308;SDS011;67566;42.022;21.356;2023-09-18T03:15:13;14.38;;;10.68;;
78308;SDS011;67566;42.022;21.356;2023-09-18T03:17:38;17.83;;;13.25;;
78308;SDS011;67566;42.022;21.356;2023-09-18T03:20:06;15.80;;;11.20;;
78308;SDS011;67566;42.022;21.356;2023-09-18T03:22:32;12.98;;;11.25;;
78308;SDS011;67566;42.022;21.356;2023-09-18T03:24:57;15.52;;;13.23;;
78308;SDS011;67566;42.022;21.356;2023-09-18T03:27:23;16.65;;;12.50;;
78308;SDS011;67566;42.022;21.356;2023-09-18T03:29:53;16.95;;;12.98;;
78308;SDS011;67566;42.022;21.356;2023-09-18T03:32:21;12.98;;;11.43;;
78308;SDS011;67566;42.022;21.356;2023-09-18T03:34:50;17.05;;;13.98;;
78308;SDS011;67566;42.022;21.356;2023-09-18T03:37:16;20.23;;;14.70;;
78308;SDS011;67566;42.022;21.356;2023-09-18T03:39:41;17.23;;;12.90;;
78308;SDS011;67566;42.022;21.356;2023-09-18T03:42:06;13.88;;;11.60;;
78308;SDS011;67566;42.022;21.356;2023-09-18T03:44:32;15.57;;;11.55;;
78308;SDS011;67566;42.022;21.356;2023-09-18T03:46:57;13.95;;;10.80;;
78308;SDS011;67566;42.022;21.356;2023-09-18T03:49:23;14.73;;;11.38;;
78308;SDS011;67566;42.022;21.356;2023-09-18T03:51:48;14.25;;;12.30;;
78308;SDS011;67566;42.022;21.356;2023-09-18T03:54:14;16.17;;;13.23;;
78308;SDS011;67566;42.022;21.356;2023-09-18T03:56:39;15.02;;;12.60;;
78308;SDS011;67566;42.022;21.356;2023-09-18T03:59:05;18.50;;;13.00;;
78308;SDS011;67566;42.022;21.356;2023-09-18T04:01:31;14.65;;;12.25;;
78308;SDS011;67566;42.022;21.356;2023-09-18T04:03:57;17.48;;;13.10;;
78308;SDS011;67566;42.022;21.356;2023-09-18T04:06:23;14.70;;;12.05;;
78308;SDS011;67566;42.022;21.356;2023-09-18T04:08:51;15.98;;;12.98;;
78308;SDS011;67566;42.022;21.356;2023-09-18T04:11:17;15.50;;;13.32;;
78308;SDS011;67566;42.022;21.356;2023-09-18T04:13:44;16.13;;;12.68;;
78308;SDS011;67566;42.022;21.356;2023-09-18T04:16:10;18.20;;;13.15;;
78308;SDS011;67566;42.022;21.356;2023-09-18T04:18:38;14.85;;;12.43;;
78308;SDS011;67566;42.022;21.356;2023-09-18T04:21:04;17.77;;;14.05;;
78308;SDS011;67566;42.022;21.356;2023-09-18T04:23:29;21.67;;;15.23;;
78308;SDS011;67566;42.022;21.356;2023-09-18T04:25:55;14.30;;;12.68;;
78308;SDS011;67566;42.022;21.356;2023-09-18T04:28:25;15.45;;;12.35;;
78308;SDS011;67566;42.022;21.356;2023-09-18T04:30:51;20.80;;;15.07;;
78308;SDS011;67566;42.022;21.356;2023-09-18T04:33:17;19.77;;;14.18;;
78308;SDS011;67566;42.022;21.356;2023-09-18T04:35:43;20.35;;;13.88;;
78308;SDS011;67566;42.022;21.356;2023-09-18T04:38:08;20.98;;;14.40;;
78308;SDS011;67566;42.022;21.356;2023-09-18T04:40:35;14.60;;;12.10;;
78308;SDS011;67566;42.022;21.356;2023-09-18T04:43:02;21.77;;;13.85;;
78308;SDS011;67566;42.022;21.356;2023-09-18T04:45:29;16.90;;;12.05;;
78308;SDS011;67566;42.022;21.356;2023-09-18T04:47:55;17.90;;;12.75;;
78308;SDS011;67566;42.022;21.356;2023-09-18T04:50:21;15.48;;;11.90;;
78308;SDS011;67566;42.022;21.356;2023-09-18T04:52:47;17.80;;;12.88;;
78308;SDS011;67566;42.022;21.356;2023-09-18T04:55:13;16.42;;;12.27;;
78308;SDS011;67566;42.022;21.356;2023-09-18T04:57:39;27.30;;;14.30;;
78308;SDS011;67566;42.022;21.356;2023-09-18T05:00:05;15.68;;;13.30;;
78308;SDS011;67566;42.022;21.356;2023-09-18T05:02:37;23.10;;;13.35;;
78308;SDS011;67566;42.022;21.356;2023-09-18T05:05:03;14.25;;;12.73;;
78308;SDS011;67566;42.022;21.356;2023-09-18T05:07:29;18.95;;;13.50;;
78308;SDS011;67566;42.022;21.356;2023-09-18T05:09:54;18.63;;;13.45;;
78308;SDS011;67566;42.022;21.356;2023-09-18T05:12:20;15.25;;;11.95;;
78308;SDS011;67566;42.022;21.356;2023-09-18T05:14:45;16.55;;;13.10;;
78308;SDS011;67566;42.022;21.356;2023-09-18T05:17:14;16.10;;;12.45;;
78308;SDS011;67566;42.022;21.356;2023-09-18T05:19:40;16.70;;;12.45;;
78308;SDS011;67566;42.022;21.356;2023-09-18T05:22:07;17.17;;;12.85;;
78308;SDS011;67566;42.022;21.356;2023-09-18T05:24:33;16.65;;;13.52;;
78308;SDS011;67566;42.022;21.356;2023-09-18T05:26:58;18.00;;;12.77;;
78308;SDS011;67566;42.022;21.356;2023-09-18T05:29:24;19.27;;;14.13;;
78308;SDS011;67566;42.022;21.356;2023-09-18T05:31:49;16.93;;;12.37;;
78308;SDS011;67566;42.022;21.356;2023-09-18T05:34:15;22.77;;;14.40;;
78308;SDS011;67566;42.022;21.356;2023-09-18T05:36:40;19.92;;;12.93;;
78308;SDS011;67566;42.022;21.356;2023-09-18T05:39:06;16.48;;;14.00;;
78308;SDS011;67566;42.022;21.356;2023-09-18T05:41:37;16.27;;;13.43;;
78308;SDS011;67566;42.022;21.356;2023-09-18T05:44:04;17.70;;;13.68;;
78308;SDS011;67566;42.022;21.356;2023-09-18T05:46:31;19.95;;;14.35;;
78308;SDS011;67566;42.022;21.356;2023-09-18T05:48:58;19.60;;;13.73;;
78308;SDS011;67566;42.022;21.356;2023-09-18T05:51:25;15.43;;;12.32;;
78308;SDS011;67566;42.022;21.356;2023-09-18T05:53:51;17.83;;;13.73;;
78308;SDS011;67566;42.022;21.356;2023-09-18T05:56:16;17.50;;;11.10;;
78308;SDS011;67566;42.022;21.356;2023-09-18T05:58:42;18.85;;;12.82;;
78308;SDS011;67566;42.022;21.356;2023-09-18T06:01:08;14.00;;;11.98;;
78308;SDS011;67566;42.022;21.356;2023-09-18T06:03:34;17.70;;;13.25;;
78308;SDS011;67566;42.022;21.356;2023-09-18T06:06:02;14.00;;;12.50;;
78308;SDS011;67566;42.022;21.356;2023-09-18T06:08:29;15.57;;;13.70;;
78308;SDS011;67566;42.022;21.356;2023-09-18T06:10:55;18.67;;;13.02;;
78308;SDS011;67566;42.022;21.356;2023-09-18T06:13:21;19.17;;;13.85;;
78308;SDS011;67566;42.022;21.356;2023-09-18T06:15:49;17.20;;;12.35;;
78308;SDS011;67566;42.022;21.356;2023-09-18T06:18:17;15.15;;;12.07;;
78308;SDS011;67566;42.022;21.356;2023-09-18T06:20:45;14.15;;;11.77;;
78308;SDS011;67566;42.022;21.356;2023-09-18T06:23:11;13.60;;;11.82;;
78308;SDS011;67566;42.022;21.356;2023-09-18T06:25:37;15.50;;;12.23;;
78308;SDS011;67566;42.022;21.356;2023-09-18T06:28:03;16.23;;;11.13;;
78308;SDS011;67566;42.022;21.356;2023-09-18T06:30:29;13.88;;;11.45;;
78308;SDS011;67566;42.022;21.356;2023-09-18T06:32:56;17.52;;;12.85;;
78308;SDS011;67566;42.022;21.356;2023-09-18T06:35:22;13.80;;;10.85;;
78308;SDS011;67566;42.022;21.356;2023-09-18T06:37:47;16.50;;;12.07;;
78308;SDS011;67566;42.022;21.356;2023-09-18T06:40:13;12.95;;;10.10;;
78308;SDS011;67566;42.022;21.356;2023-09-18T06:42:38;15.27;;;13.30;;
78308;SDS011;67566;42.022;21.356;2023-09-18T06:45:04;14.65;;;10.95;;
78308;SDS011;67566;42.022;21.356;2023-09-18T06:47:32;13.60;;;11.45;;
78308;SDS011;67566;42.022;21.356;2023-09-18T06:49:58;13.38;;;11.40;;
78308;SDS011;67566;42.022;21.356;2023-09-18T06:52:25;15.82;;;11.20;;
78308;SDS011;67566;42.022;21.356;2023-09-18T06:54:51;12.98;;;11.50;;
78308;SDS011;67566;42.022;21.356;2023-09-18T06:57:17;14.40;;;11.63;;
78308;SDS011;67566;42.022;21.356;2023-09-18T06:59:43;15.00;;;11.90;;
78308;SDS011;67566;42.022;21.356;2023-09-18T07:02:09;13.88;;;11.18;;
78308;SDS011;67566;42.022;21.356;2023-09-18T07:04:35;17.50;;;11.95;;
78308;SDS011;67566;42.022;21.356;2023-09-18T07:07:02;14.23;;;12.00;;
78308;SDS011;67566;42.022;21.356;2023-09-18T07:09:27;15.18;;;11.75;;
78308;SDS011;67566;42.022;21.356;2023-09-18T07:11:53;16.27;;;11.18;;
78308;SDS011;67566;42.022;21.356;2023-09-18T07:14:18;17.05;;;12.93;;
78308;SDS011;67566;42.022;21.356;2023-09-18T07:16:44;14.73;;;11.35;;
78308;SDS011;67566;42.022;21.356;2023-09-18T07:19:09;15.77;;;11.50;;
78308;SDS011;67566;42.022;21.356;2023-09-18T07:21:37;18.95;;;13.63;;
78308;SDS011;67566;42.022;21.356;2023-09-18T07:24:03;14.80;;;10.73;;
78308;SDS011;67566;42.022;21.356;2023-09-18T07:26:29;13.93;;;11.27;;
78308;SDS011;67566;42.022;21.356;2023-09-18T07:28:54;15.20;;;12.45;;
78308;SDS011;67566;42.022;21.356;2023-09-18T07:31:20;16.38;;;11.30;;
78308;SDS011;67566;42.022;21.356;2023-09-18T07:33:45;17.40;;;12.55;;
78308;SDS011;67566;42.022;21.356;2023-09-18T07:36:11;16.55;;;12.38;;
78308;SDS011;67566;42.022;21.356;2023-09-18T07:38:37;14.10;;;12.40;;
78308;SDS011;67566;42.022;21.356;2023-09-18T07:41:08;18.02;;;12.52;;
78308;SDS011;67566;42.022;21.356;2023-09-18T07:43:34;19.35;;;14.00;;
78308;SDS011;67566;42.022;21.356;2023-09-18T07:45:59;23.85;;;13.82;;
78308;SDS011;67566;42.022;21.356;2023-09-18T07:48:26;15.55;;;13.38;;
78308;SDS011;67566;42.022;21.356;2023-09-18T07:50:52;18.45;;;14.55;;
78308;SDS011;67566;42.022;21.356;2023-09-18T07:53:19;18.83;;;12.77;;
78308;SDS011;67566;42.022;21.356;2023-09-18T07:55:45;19.25;;;12.75;;
78308;SDS011;67566;42.022;21.356;2023-09-18T07:58:10;22.65;;;13.30;;
78308;SDS011;67566;42.022;21.356;2023-09-18T08:00:36;18.65;;;14.63;;
78308;SDS011;67566;42.022;21.356;2023-09-18T08:03:02;16.90;;;13.48;;
78308;SDS011;67566;42.022;21.356;2023-09-18T08:05:28;20.85;;;13.98;;
78308;SDS011;67566;42.022;21.356;2023-09-18T08:07:55;19.23;;;14.40;;
78308;SDS011;67566;42.022;21.356;2023-09-18T08:10:24;18.13;;;14.25;;
78308;SDS011;67566;42.022;21.356;2023-09-18T08:12:50;19.52;;;14.60;;
78308;SDS011;67566;42.022;21.356;2023-09-18T08:15:18;20.80;;;14.23;;
78308;SDS011;67566;42.022;21.356;2023-09-18T08:17:45;18.25;;;13.23;;
78308;SDS011;67566;42.022;21.356;2023-09-18T08:20:11;21.25;;;12.65;;
78308;SDS011;67566;42.022;21.356;2023-09-18T08:22:40;17.55;;;12.02;;
78308;SDS011;67566;42.022;21.356;2023-09-18T08:25:06;14.45;;;12.27;;
78308;SDS011;67566;42.022;21.356;2023-09-18T08:27:38;15.50;;;12.52;;
78308;SDS011;67566;42.022;21.356;2023-09-18T08:30:09;13.30;;;10.77;;
78308;SDS011;67566;42.022;21.356;2023-09-18T08:32:36;17.75;;;12.38;;
78308;SDS011;67566;42.022;21.356;2023-09-18T08:35:03;15.07;;;12.50;;
78308;SDS011;67566;42.022;21.356;2023-09-18T08:37:29;14.48;;;12.77;;
78308;SDS011;67566;42.022;21.356;2023-09-18T08:39:55;15.88;;;13.88;;
78308;SDS011;67566;42.022;21.356;2023-09-18T08:42:20;14.57;;;12.18;;
78308;SDS011;67566;42.022;21.356;2023-09-18T08:44:51;13.55;;;11.43;;
78308;SDS011;67566;42.022;21.356;2023-09-18T08:47:17;14.48;;;12.45;;
78308;SDS011;67566;42.022;21.356;2023-09-18T08:49:45;15.88;;;11.13;;
78308;SDS011;67566;42.022;21.356;2023-09-18T08:52:13;15.63;;;13.60;;
78308;SDS011;67566;42.022;21.356;2023-09-18T08:54:40;16.88;;;13.63;;
78308;SDS011;67566;42.022;21.356;2023-09-18T08:57:09;15.43;;;12.57;;
78308;SDS011;67566;42.022;21.356;2023-09-18T08:59:34;16.73;;;12.50;;
78308;SDS011;67566;42.022;21.356;2023-09-18T09:02:01;14.85;;;11.65;;
78308;SDS011;67566;42.022;21.356;2023-09-18T09:04:27;15.38;;;12.60;;
78308;SDS011;67566;42.022;21.356;2023-09-18T09:06:53;14.55;;;12.65;;
78308;SDS011;67566;42.022;21.356;2023-09-18T09:09:22;14.38;;;12.60;;
78308;SDS011;67566;42.022;21.356;2023-09-18T09:11:51;14.68;;;12.77;;
78308;SDS011;67566;42.022;21.356;2023-09-18T09:14:17;16.80;;;12.73;;
78308;SDS011;67566;42.022;21.356;2023-09-18T09:16:50;15.70;;;12.43;;
78308;SDS011;67566;42.022;21.356;2023-09-18T09:19:16;18.63;;;13.23;;
78308;SDS011;67566;42.022;21.356;2023-09-18T09:21:43;13.15;;;11.25;;
78308;SDS011;67566;42.022;21.356;2023-09-18T09:24:10;16.45;;;12.70;;
78308;SDS011;67566;42.022;21.356;2023-09-18T09:26:41;15.10;;;13.00;;
78308;SDS011;67566;42.022;21.356;2023-09-18T09:29:14;15.18;;;12.70;;
78308;SDS011;67566;42.022;21.356;2023-09-18T09:34:08;15.90;;;13.65;;
78308;SDS011;67566;42.022;21.356;2023-09-18T09:36:34;14.52;;;12.80;;
78308;SDS011;67566;42.022;21.356;2023-09-18T09:38:59;14.80;;;13.20;;
78308;SDS011;67566;42.022;21.356;2023-09-18T09:41:26;14.95;;;11.65;;
78308;SDS011;67566;42.022;21.356;2023-09-18T09:43:55;16.83;;;12.88;;
78308;SDS011;67566;42.022;21.356;2023-09-18T09:46:21;14.38;;;12.82;;
78308;SDS011;67566;42.022;21.356;2023-09-18T09:49:05;15.13;;;12.82;;
78308;SDS011;67566;42.022;21.356;2023-09-18T09:51:32;14.38;;;11.98;;
78308;SDS011;67566;42.022;21.356;2023-09-18T09:53:59;16.05;;;12.32;;
78308;SDS011;67566;42.022;21.356;2023-09-18T09:59:10;18.40;;;13.20;;
78308;SDS011;67566;42.022;21.356;2023-09-18T10:01:37;15.70;;;12.15;;
78308;SDS011;67566;42.022;21.356;2023-09-18T10:04:04;13.00;;;11.60;;
78308;SDS011;67566;42.022;21.356;2023-09-18T10:06:33;14.57;;;11.82;;
78308;SDS011;67566;42.022;21.356;2023-09-18T10:09:00;15.57;;;11.05;;
78308;SDS011;67566;42.022;21.356;2023-09-18T10:11:32;13.23;;;11.20;;
78308;SDS011;67566;42.022;21.356;2023-09-18T10:16:56;12.50;;;10.35;;
78308;SDS011;67566;42.022;21.356;2023-09-18T10:22:00;15.00;;;12.27;;
78308;SDS011;67566;42.022;21.356;2023-09-18T10:24:43;16.13;;;11.73;;
78308;SDS011;67566;42.022;21.356;2023-09-18T10:27:15;13.52;;;12.13;;
78308;SDS011;67566;42.022;21.356;2023-09-18T10:29:48;12.63;;;11.30;;
78308;SDS011;67566;42.022;21.356;2023-09-18T10:32:16;14.98;;;10.75;;
78308;SDS011;67566;42.022;21.356;2023-09-18T10:34:47;14.50;;;11.70;;
78308;SDS011;67566;42.022;21.356;2023-09-18T10:37:22;12.52;;;11.23;;
78308;SDS011;67566;42.022;21.356;2023-09-18T10:39:50;12.90;;;10.55;;
78308;SDS011;67566;42.022;21.356;2023-09-18T10:42:22;15.45;;;11.43;;
78308;SDS011;67566;42.022;21.356;2023-09-18T10:44:49;12.68;;;10.38;;
78308;SDS011;67566;42.022;21.356;2023-09-18T10:47:15;12.00;;;9.10;;
78308;SDS011;67566;42.022;21.356;2023-09-18T10:49:46;13.35;;;10.43;;
78308;SDS011;67566;42.022;21.356;2023-09-18T10:52:17;13.52;;;10.63;;
78308;SDS011;67566;42.022;21.356;2023-09-18T10:54:45;14.23;;;10.30;;
78308;SDS011;67566;42.022;21.356;2023-09-18T10:57:56;13.88;;;11.13;;
78308;SDS011;67566;42.022;21.356;2023-09-18T11:00:37;12.02;;;9.68;;
78308;SDS011;67566;42.022;21.356;2023-09-18T11:03:26;12.65;;;10.30;;
78308;SDS011;67566;42.022;21.356;2023-09-18T11:12:42;11.55;;;9.65;;
78308;SDS011;67566;42.022;21.356;2023-09-18T11:15:30;14.43;;;9.02;;
78308;SDS011;67566;42.022;21.356;2023-09-18T11:18:05;13.75;;;9.63;;
78308;SDS011;67566;42.022;21.356;2023-09-18T11:21:09;14.00;;;9.55;;
78308;SDS011;67566;42.022;21.356;2023-09-18T11:24:04;12.05;;;8.50;;
78308;SDS011;67566;42.022;21.356;2023-09-18T11:27:00;11.27;;;9.20;;
78308;SDS011;67566;42.022;21.356;2023-09-18T11:29:44;10.60;;;8.93;;
78308;SDS011;67566;42.022;21.356;2023-09-18T11:32:36;10.38;;;8.50;;
78308;SDS011;67566;42.022;21.356;2023-09-18T11:35:11;10.57;;;9.20;;
78308;SDS011;67566;42.022;21.356;2023-09-18T11:40:56;11.00;;;8.05;;
78308;SDS011;67566;42.022;21.356;2023-09-18T11:43:31;10.82;;;8.63;;
78308;SDS011;67566;42.022;21.356;2023-09-18T11:46:08;9.40;;;8.00;;
78308;SDS011;67566;42.022;21.356;2023-09-18T11:48:38;11.10;;;9.18;;
78308;SDS011;67566;42.022;21.356;2023-09-18T11:51:13;9.82;;;8.32;;
78308;SDS011;67566;42.022;21.356;2023-09-18T11:53:54;9.90;;;8.90;;
78308;SDS011;67566;42.022;21.356;2023-09-18T11:56:29;10.35;;;8.90;;
78308;SDS011;67566;42.022;21.356;2023-09-18T11:59:41;9.88;;;8.00;;
78308;SDS011;67566;42.022;21.356;2023-09-18T12:02:46;9.52;;;7.18;;
78308;SDS011;67566;42.022;21.356;2023-09-18T12:05:21;9.43;;;6.65;;
78308;SDS011;67566;42.022;21.356;2023-09-18T12:08:41;8.80;;;7.90;;
78308;SDS011;67566;42.022;21.356;2023-09-18T12:11:24;7.75;;;7.05;;
78308;SDS011;67566;42.022;21.356;2023-09-18T12:14:26;8.18;;;7.20;;
78308;SDS011;67566;42.022;21.356;2023-09-18T12:17:08;9.18;;;6.75;;
78308;SDS011;67566;42.022;21.356;2023-09-18T12:19:37;7.32;;;6.25;;
78308;SDS011;67566;42.022;21.356;2023-09-18T12:22:32;7.10;;;6.15;;
78308;SDS011;67566;42.022;21.356;2023-09-18T12:25:11;8.43;;;6.63;;
78308;SDS011;67566;42.022;21.356;2023-09-18T12:27:53;7.85;;;5.90;;
78308;SDS011;67566;42.022;21.356;2023-09-18T12:30:35;10.23;;;7.28;;
78308;SDS011;67566;42.022;21.356;2023-09-18T12:33:01;10.77;;;8.30;;
78308;SDS011;67566;42.022;21.356;2023-09-18T12:35:31;10.43;;;7.28;;
78308;SDS011;67566;42.022;21.356;2023-09-18T12:38:00;7.35;;;6.10;;
78308;SDS011;67566;42.022;21.356;2023-09-18T12:40:33;7.63;;;6.28;;
78308;SDS011;67566;42.022;21.356;2023-09-18T12:42:59;8.48;;;6.65;;
78308;SDS011;67566;42.022;21.356;2023-09-18T12:45:26;7.90;;;6.32;;
78308;SDS011;67566;42.022;21.356;2023-09-18T12:47:55;8.02;;;6.10;;
78308;SDS011;67566;42.022;21.356;2023-09-18T12:50:24;6.10;;;5.05;;
78308;SDS011;67566;42.022;21.356;2023-09-18T12:52:50;7.65;;;5.28;;
78308;SDS011;67566;42.022;21.356;2023-09-18T12:55:24;6.40;;;5.72;;
78308;SDS011;67566;42.022;21.356;2023-09-18T12:57:52;9.55;;;5.35;;
78308;SDS011;67566;42.022;21.356;2023-09-18T13:00:18;9.10;;;6.18;;
78308;SDS011;67566;42.022;21.356;2023-09-18T13:02:46;6.57;;;5.20;;
78308;SDS011;67566;42.022;21.356;2023-09-18T13:05:12;8.60;;;7.18;;
78308;SDS011;67566;42.022;21.356;2023-09-18T13:07:45;6.85;;;4.80;;
78308;SDS011;67566;42.022;21.356;2023-09-18T13:10:12;6.50;;;5.38;;
78308;SDS011;67566;42.022;21.356;2023-09-18T13:12:45;5.95;;;4.72;;
78308;SDS011;67566;42.022;21.356;2023-09-18T13:15:12;5.32;;;4.53;;
78308;SDS011;67566;42.022;21.356;2023-09-18T13:17:39;6.53;;;4.25;;
78308;SDS011;67566;42.022;21.356;2023-09-18T13:20:22;6.10;;;3.97;;
78308;SDS011;67566;42.022;21.356;2023-09-18T13:22:52;6.40;;;4.57;;
78308;SDS011;67566;42.022;21.356;2023-09-18T13:25:22;6.50;;;5.63;;
78308;SDS011;67566;42.022;21.356;2023-09-18T13:27:49;11.82;;;10.60;;
78308;SDS011;67566;42.022;21.356;2023-09-18T13:30:16;10.25;;;9.20;;
78308;SDS011;67566;42.022;21.356;2023-09-18T13:32:45;6.22;;;5.03;;
78308;SDS011;67566;42.022;21.356;2023-09-18T13:35:17;6.00;;;5.40;;
78308;SDS011;67566;42.022;21.356;2023-09-18T13:37:44;6.15;;;5.10;;
78308;SDS011;67566;42.022;21.356;2023-09-18T13:40:10;6.88;;;5.40;;
78308;SDS011;67566;42.022;21.356;2023-09-18T13:42:41;6.28;;;5.10;;
78308;SDS011;67566;42.022;21.356;2023-09-18T13:45:09;6.78;;;5.35;;
78308;SDS011;67566;42.022;21.356;2023-09-18T13:47:35;6.28;;;4.78;;
78308;SDS011;67566;42.022;21.356;2023-09-18T13:50:02;6.35;;;5.00;;
78308;SDS011;67566;42.022;21.356;2023-09-18T13:52:29;5.55;;;4.72;;
78308;SDS011;67566;42.022;21.356;2023-09-18T13:54:56;6.15;;;5.32;;
78308;SDS011;67566;42.022;21.356;2023-09-18T13:57:22;7.88;;;5.55;;
78308;SDS011;67566;42.022;21.356;2023-09-18T13:59:48;5.72;;;4.55;;
78308;SDS011;67566;42.022;21.356;2023-09-18T14:02:15;7.35;;;5.32;;
78308;SDS011;67566;42.022;21.356;2023-09-18T14:04:41;6.93;;;5.68;;
78308;SDS011;67566;42.022;21.356;2023-09-18T14:07:08;7.57;;;5.45;;
78308;SDS011;67566;42.022;21.356;2023-09-18T14:09:35;7.82;;;5.40;;
78308;SDS011;67566;42.022;21.356;2023-09-18T14:12:01;7.93;;;5.90;;
78308;SDS011;67566;42.022;21.356;2023-09-18T14:14:28;5.35;;;4.85;;
78308;SDS011;67566;42.022;21.356;2023-09-18T14:16:54;7.10;;;5.07;;
78308;SDS011;67566;42.022;21.356;2023-09-18T14:19:20;7.03;;;5.25;;
78308;SDS011;67566;42.022;21.356;2023-09-18T14:21:46;8.38;;;5.57;;
78308;SDS011;67566;42.022;21.356;2023-09-18T14:24:14;7.68;;;6.88;;
78308;SDS011;67566;42.022;21.356;2023-09-18T14:26:45;9.02;;;6.50;;
78308;SDS011;67566;42.022;21.356;2023-09-18T14:29:11;7.72;;;6.05;;
78308;SDS011;67566;42.022;21.356;2023-09-18T14:31:38;13.68;;;8.60;;
78308;SDS011;67566;42.022;21.356;2023-09-18T14:34:04;9.15;;;7.80;;
78308;SDS011;67566;42.022;21.356;2023-09-18T14:36:34;8.20;;;6.50;;
78308;SDS011;67566;42.022;21.356;2023-09-18T14:39:01;7.88;;;5.90;;
78308;SDS011;67566;42.022;21.356;2023-09-18T14:41:29;6.80;;;5.53;;
78308;SDS011;67566;42.022;21.356;2023-09-18T14:43:55;7.25;;;6.45;;